createdAt,value
2023-03-21T00:02:00.203Z,14.68
2023-03-21T00:04:40.942Z,15.00
2023-03-21T00:07:15.747Z,15.90
2023-03-21T00:09:46.772Z,19.92
2023-03-21T00:12:17.684Z,15.73
2023-03-21T00:14:48.524Z,16.77
2023-03-21T00:17:23.391Z,18.00
2023-03-21T00:19:56.144Z,14.38
2023-03-21T00:22:31.094Z,12.35
2023-03-21T00:25:02.493Z,12.63
2023-03-21T00:27:53.266Z,12.65
2023-03-21T00:30:25.378Z,12.80
2023-03-21T00:33:03.566Z,12.02
2023-03-21T00:35:58.499Z,13.73
2023-03-21T00:38:28.515Z,12.85
2023-03-21T00:41:04.672Z,11.55
2023-03-21T00:43:35.773Z,10.77
2023-03-21T00:46:07.268Z,11.95
2023-03-21T00:48:38.238Z,11.60
2023-03-21T00:51:26.903Z,11.90
2023-03-21T00:53:59.281Z,10.93
2023-03-21T00:56:32.536Z,12.07
2023-03-21T00:59:03.600Z,10.10
2023-03-21T01:01:35.543Z,11.45
2023-03-21T01:04:14.537Z,11.02
2023-03-21T01:06:46.304Z,11.60
2023-03-21T01:09:20.453Z,11.38
2023-03-21T01:11:52.593Z,11.50
2023-03-21T01:14:25.589Z,10.73
2023-03-21T01:16:56.978Z,11.98
2023-03-21T01:19:50.759Z,11.70
2023-03-21T01:22:20.708Z,12.20
2023-03-21T01:24:58.360Z,11.90
2023-03-21T01:27:31.788Z,12.85
2023-03-21T01:30:11.315Z,14.68
2023-03-21T01:32:48.649Z,12.70
2023-03-21T01:35:20.327Z,13.82
2023-03-21T01:37:52.609Z,13.52
2023-03-21T01:40:28.978Z,12.63
2023-03-21T01:43:36.179Z,13.27
2023-03-21T01:46:30.199Z,13.63
2023-03-21T01:49:28.657Z,12.75
2023-03-21T01:52:23.457Z,13.85
2023-03-21T01:54:58.574Z,15.32
2023-03-21T01:57:43.792Z,14.45
2023-03-21T02:00:23.724Z,13.98
2023-03-21T02:03:15.158Z,14.00
2023-03-21T02:06:04.695Z,15.52
2023-03-21T02:08:40.423Z,16.10
2023-03-21T02:11:16.841Z,16.05
2023-03-21T02:13:50.230Z,16.25
2023-03-21T02:16:48.417Z,16.27
2023-03-21T02:19:41.691Z,16.73
2023-03-21T02:22:45.430Z,15.30
2023-03-21T02:25:55.568Z,14.27
2023-03-21T02:28:31.750Z,15.20
2023-03-21T02:31:38.082Z,14.05
2023-03-21T02:34:42.532Z,13.88
2023-03-21T02:37:18.519Z,13.80
2023-03-21T02:39:57.409Z,14.55
2023-03-21T02:42:32.746Z,14.80
2023-03-21T02:45:27.614Z,15.60
2023-03-21T02:48:10.071Z,14.40
2023-03-21T02:50:53.568Z,13.85
2023-03-21T02:53:27.626Z,14.30
2023-03-21T02:56:00.980Z,15.77
2023-03-21T02:58:35.646Z,14.55
2023-03-21T03:01:10.289Z,14.02
2023-03-21T03:03:48.575Z,15.60
2023-03-21T03:06:46.295Z,14.48
2023-03-21T03:09:30.424Z,13.23
2023-03-21T03:12:17.510Z,12.80
2023-03-21T03:15:03.373Z,13.15
2023-03-21T03:17:40.544Z,13.95
2023-03-21T03:20:46.364Z,13.27
2023-03-21T03:23:21.323Z,12.60
2023-03-21T03:25:57.350Z,11.85
2023-03-21T03:28:34.912Z,13.45
2023-03-21T03:31:10.478Z,12.15
2023-03-21T03:33:48.943Z,10.77
2023-03-21T03:36:33.693Z,10.73
2023-03-21T03:39:11.784Z,10.77
2023-03-21T03:42:10.186Z,11.20
2023-03-21T03:44:44.497Z,11.95
2023-03-21T03:47:34.881Z,11.15
2023-03-21T03:50:33.631Z,11.23
2023-03-21T03:53:18.060Z,12.57
2023-03-21T03:55:53.708Z,11.93
2023-03-21T03:58:39.420Z,11.35
2023-03-21T04:01:18.748Z,11.00
2023-03-21T04:04:01.062Z,9.68
2023-03-21T04:06:42.415Z,10.55
2023-03-21T04:09:20.992Z,9.80
2023-03-21T04:11:55.854Z,10.77
2023-03-21T04:14:35.649Z,9.75
2023-03-21T04:17:10.025Z,14.20
2023-03-21T04:19:41.073Z,10.80
2023-03-21T04:22:13.630Z,11.43
2023-03-21T04:24:46.476Z,10.10
2023-03-21T04:27:17.204Z,10.50
2023-03-21T04:30:08.497Z,11.27
2023-03-21T04:32:57.887Z,11.35
2023-03-21T04:35:30.222Z,11.20
2023-03-21T04:38:01.474Z,11.48
2023-03-21T04:40:40.932Z,11.52
2023-03-21T04:43:11.865Z,12.20
2023-03-21T04:45:43.917Z,11.55
2023-03-21T04:48:15.447Z,11.90
2023-03-21T04:50:47.585Z,11.00
2023-03-21T04:53:18.672Z,10.77
2023-03-21T04:55:53.450Z,11.63
2023-03-21T04:58:26.113Z,11.65
2023-03-21T05:00:58.265Z,12.23
2023-03-21T05:03:35.300Z,14.63
2023-03-21T05:06:07.963Z,12.50
2023-03-21T05:08:39.073Z,11.57
2023-03-21T05:11:12.176Z,11.55
2023-03-21T05:13:47.291Z,9.70
2023-03-21T05:16:18.886Z,11.32
2023-03-21T05:18:52.375Z,10.35
2023-03-21T05:21:24.771Z,11.23
2023-03-21T05:23:55.484Z,11.00
2023-03-21T05:26:27.302Z,9.82
2023-03-21T05:29:15.969Z,11.00
2023-03-21T05:31:48.969Z,10.93
2023-03-21T05:34:20.013Z,10.68
2023-03-21T05:36:52.327Z,11.23
2023-03-21T05:39:24.589Z,10.27
2023-03-21T05:42:04.796Z,9.77
2023-03-21T05:44:36.313Z,10.93
2023-03-21T05:47:10.443Z,9.93
2023-03-21T05:49:48.143Z,8.98
2023-03-21T05:52:19.972Z,8.75
2023-03-21T05:54:52.576Z,9.57
2023-03-21T05:57:29.710Z,10.45
2023-03-21T06:00:04.091Z,9.43
2023-03-21T06:02:46.593Z,8.75
2023-03-21T06:05:40.251Z,10.55
2023-03-21T06:08:21.330Z,9.80
2023-03-21T06:10:52.104Z,11.48
2023-03-21T06:13:23.361Z,12.18
2023-03-21T06:15:57.460Z,13.05
2023-03-21T06:18:29.922Z,11.60
2023-03-21T06:21:20.128Z,11.85
2023-03-21T06:23:55.096Z,10.30
2023-03-21T06:26:27.400Z,11.45
2023-03-21T06:28:58.935Z,10.02
2023-03-21T06:31:30.132Z,11.07
2023-03-21T06:34:06.272Z,9.98
2023-03-21T06:36:37.623Z,10.80
2023-03-21T06:39:09.701Z,10.38
2023-03-21T06:41:43.420Z,10.52
2023-03-21T06:44:14.555Z,11.32
2023-03-21T06:46:55.254Z,11.38
2023-03-21T06:49:27.903Z,10.35
2023-03-21T06:52:01.987Z,9.93
2023-03-21T06:54:32.989Z,11.32
2023-03-21T06:57:08.678Z,9.15
2023-03-21T06:59:42.461Z,8.77
2023-03-21T07:02:17.696Z,7.72
2023-03-21T07:05:01.380Z,8.68
2023-03-21T07:07:33.838Z,7.13
2023-03-21T07:10:07.059Z,8.88
2023-03-21T07:12:47.816Z,9.93
2023-03-21T07:15:23.797Z,10.50
2023-03-21T07:17:55.580Z,8.90
2023-03-21T07:20:27.826Z,8.38
2023-03-21T07:22:59.276Z,7.55
2023-03-21T07:25:31.091Z,43.50
2023-03-21T07:28:02.924Z,7.90
2023-03-21T07:30:34.279Z,7.68
2023-03-21T07:33:05.833Z,7.13
2023-03-21T07:35:40.854Z,8.27
2023-03-21T07:38:12.485Z,9.80
2023-03-21T07:40:43.378Z,8.05
2023-03-21T07:45:48.933Z,31.27
2023-03-21T07:48:20.397Z,10.98
2023-03-21T07:50:51.936Z,14.32
2023-03-21T07:53:23.579Z,13.05
2023-03-21T07:55:57.443Z,9.38
2023-03-21T07:58:32.548Z,10.68
2023-03-21T08:01:03.967Z,11.63
2023-03-21T08:03:34.901Z,9.18
2023-03-21T08:06:06.274Z,8.35
2023-03-21T08:08:37.904Z,9.77
2023-03-21T08:11:09.947Z,9.93
2023-03-21T08:13:41.250Z,8.85
2023-03-21T08:16:12.369Z,8.52
2023-03-21T08:18:43.797Z,8.40
2023-03-21T08:21:15.123Z,8.95
2023-03-21T08:23:46.347Z,10.18
2023-03-21T08:26:19.651Z,10.68
2023-03-21T08:28:50.848Z,10.38
2023-03-21T08:31:22.861Z,8.70
2023-03-21T08:33:55.691Z,12.75
2023-03-21T08:36:30.510Z,10.27
2023-03-21T08:39:06.388Z,10.60
2023-03-21T08:41:39.166Z,11.73
2023-03-21T08:44:12.850Z,11.13
2023-03-21T08:46:46.096Z,12.18
2023-03-21T08:49:17.325Z,12.23
2023-03-21T08:51:48.294Z,11.68
2023-03-21T08:54:24.087Z,12.43
2023-03-21T08:56:54.886Z,11.95
2023-03-21T08:59:25.799Z,11.23
2023-03-21T09:01:57.139Z,20.13
2023-03-21T09:04:30.785Z,12.32
2023-03-21T09:07:06.397Z,9.75
2023-03-21T09:09:38.417Z,9.35
2023-03-21T09:12:11.017Z,11.02
2023-03-21T09:14:42.152Z,10.05
2023-03-21T09:17:17.386Z,10.50
2023-03-21T09:19:50.793Z,11.02
2023-03-21T09:22:22.680Z,10.57
2023-03-21T09:24:54.729Z,12.63
2023-03-21T09:27:34.414Z,10.60
2023-03-21T09:30:07.134Z,9.30
2023-03-21T09:32:39.705Z,11.52
2023-03-21T09:35:13.700Z,11.07
2023-03-21T09:37:44.881Z,9.82
2023-03-21T09:40:41.883Z,8.93
2023-03-21T09:43:34.421Z,9.60
2023-03-21T09:46:29.146Z,10.05
2023-03-21T09:49:08.949Z,10.00
2023-03-21T09:51:44.834Z,9.48
2023-03-21T09:54:29.109Z,9.55
2023-03-21T09:57:12.752Z,9.10
2023-03-21T09:59:47.388Z,9.63
2023-03-21T10:02:33.194Z,10.48
2023-03-21T10:05:15.826Z,11.10
2023-03-21T10:08:28.255Z,10.50
2023-03-21T10:11:04.977Z,11.13
2023-03-21T10:13:40.826Z,11.35
2023-03-21T10:16:16.978Z,10.93
2023-03-21T10:18:50.615Z,10.18
2023-03-21T10:21:56.478Z,11.85
2023-03-21T10:24:26.677Z,14.45
2023-03-21T10:26:58.510Z,11.25
2023-03-21T10:29:45.081Z,11.73
2023-03-21T10:32:18.376Z,10.98
2023-03-21T10:34:59.219Z,10.52
2023-03-21T10:37:30.987Z,10.55
2023-03-21T10:40:01.680Z,10.32
2023-03-21T10:42:34.936Z,12.45
2023-03-21T10:45:17.559Z,15.57
2023-03-21T10:47:51.165Z,10.75
2023-03-21T10:50:26.857Z,13.65
2023-03-21T10:53:01.794Z,11.70
2023-03-21T10:55:37.116Z,11.82
2023-03-21T10:58:19.739Z,10.68
2023-03-21T11:00:51.467Z,9.98
2023-03-21T11:03:32.320Z,12.10
2023-03-21T11:06:28.721Z,10.95
2023-03-21T11:09:24.204Z,10.93
2023-03-21T11:12:20.027Z,11.48
2023-03-21T11:14:53.124Z,11.95
2023-03-21T11:17:28.916Z,9.95
2023-03-21T11:20:11.739Z,10.05
2023-03-21T11:22:44.500Z,11.35
2023-03-21T11:25:38.726Z,11.40
2023-03-21T11:28:23.350Z,11.20
2023-03-21T11:30:59.150Z,11.85
2023-03-21T11:33:37.483Z,9.85
2023-03-21T11:36:23.015Z,10.80
2023-03-21T11:39:05.333Z,11.85
2023-03-21T11:41:36.594Z,12.40
2023-03-21T11:44:07.779Z,10.82
2023-03-21T11:46:43.057Z,12.38
2023-03-21T11:49:13.839Z,10.80
2023-03-21T11:51:47.264Z,10.00
2023-03-21T11:54:47.311Z,10.35
2023-03-21T11:57:32.300Z,12.10
2023-03-21T12:00:16.768Z,11.88
2023-03-21T12:02:57.354Z,10.77
2023-03-21T12:05:45.403Z,10.57
2023-03-21T12:08:43.068Z,10.43
2023-03-21T12:11:41.313Z,10.32
2023-03-21T12:14:53.482Z,10.02
2023-03-21T12:17:34.697Z,10.40
2023-03-21T12:20:39.292Z,9.82
2023-03-21T12:23:49.111Z,10.25
2023-03-21T12:26:34.597Z,9.82
2023-03-21T12:29:28.291Z,9.70
2023-03-21T12:32:40.712Z,10.07
2023-03-21T12:35:26.105Z,10.00
2023-03-21T12:38:20.447Z,9.80
2023-03-21T12:41:07.116Z,9.57
2023-03-21T12:43:45.093Z,10.45
2023-03-21T12:46:50.515Z,9.30
2023-03-21T12:49:30.956Z,10.00
2023-03-21T12:52:28.449Z,10.18
2023-03-21T12:55:20.831Z,10.15
2023-03-21T12:58:04.095Z,10.95
2023-03-21T13:00:56.289Z,10.43
2023-03-21T13:03:39.853Z,10.57
2023-03-21T13:06:20.450Z,10.55
2023-03-21T13:09:28.610Z,10.30
2023-03-21T13:12:25.667Z,10.45
2023-03-21T13:15:24.650Z,10.45
2023-03-21T13:18:26.634Z,10.43
2023-03-21T13:21:00.222Z,9.45
2023-03-21T13:23:40.181Z,10.05
2023-03-21T13:26:13.378Z,9.70
2023-03-21T13:28:45.014Z,9.73
2023-03-21T13:31:26.645Z,9.13
2023-03-21T13:34:01.099Z,9.50
2023-03-21T13:36:34.433Z,9.68
2023-03-21T13:39:08.024Z,10.15
2023-03-21T13:41:40.709Z,9.98
2023-03-21T13:44:23.552Z,10.77
2023-03-21T13:47:04.516Z,10.68
2023-03-21T13:49:36.604Z,10.70
2023-03-21T13:52:13.339Z,9.32
2023-03-21T13:54:55.468Z,10.57
2023-03-21T13:57:31.321Z,10.20
2023-03-21T14:00:40.574Z,10.05
2023-03-21T14:03:15.540Z,9.45
2023-03-21T14:05:52.368Z,9.43
2023-03-21T14:08:36.501Z,9.68
2023-03-21T14:11:11.546Z,8.98
2023-03-21T14:13:51.265Z,9.60
2023-03-21T14:16:24.651Z,11.60
2023-03-21T14:18:59.010Z,9.88
2023-03-21T14:21:33.446Z,9.70
2023-03-21T14:24:13.451Z,9.10
2023-03-21T14:27:02.941Z,10.43
2023-03-21T14:29:35.871Z,9.45
2023-03-21T14:32:07.809Z,9.00
2023-03-21T14:34:39.269Z,8.88
2023-03-21T14:37:12.936Z,9.32
2023-03-21T14:39:43.823Z,11.18
2023-03-21T14:42:15.892Z,11.73
2023-03-21T14:44:55.558Z,8.88
2023-03-21T14:47:33.122Z,9.35
2023-03-21T14:50:07.766Z,9.63
2023-03-21T14:52:39.618Z,9.30
2023-03-21T14:55:17.832Z,9.45
2023-03-21T14:57:50.350Z,9.30
2023-03-21T15:00:32.589Z,10.82
2023-03-21T15:03:04.505Z,10.13
2023-03-21T15:05:38.499Z,10.48
2023-03-21T15:08:11.351Z,10.13
2023-03-21T15:10:44.689Z,10.00
2023-03-21T15:13:21.201Z,13.00
2023-03-21T15:15:57.879Z,9.27
2023-03-21T15:18:41.675Z,9.10
2023-03-21T15:21:42.930Z,9.02
2023-03-21T15:24:20.826Z,8.82
2023-03-21T15:26:52.055Z,9.38
2023-03-21T15:29:35.402Z,9.20
2023-03-21T15:32:18.503Z,9.15
2023-03-21T15:34:49.052Z,9.35
2023-03-21T15:37:25.682Z,9.77
2023-03-21T15:40:10.832Z,9.88
2023-03-21T15:42:43.145Z,8.90
2023-03-21T15:45:27.712Z,9.27
2023-03-21T15:48:28.876Z,9.57
2023-03-21T15:51:03.418Z,9.30
2023-03-21T15:53:37.152Z,9.50
2023-03-21T15:56:17.054Z,9.98
2023-03-21T15:58:50.625Z,9.05
2023-03-21T16:01:23.520Z,9.95
2023-03-21T16:03:59.735Z,8.75
2023-03-21T16:06:35.335Z,8.85
2023-03-21T16:09:11.855Z,10.02
2023-03-21T16:11:56.855Z,11.77
2023-03-21T16:14:29.337Z,9.48
2023-03-21T16:17:00.367Z,10.60
2023-03-21T16:19:31.800Z,10.13
2023-03-21T16:22:02.768Z,9.95
2023-03-21T16:24:34.142Z,9.93
2023-03-21T16:27:05.054Z,11.00
2023-03-21T16:29:35.953Z,10.75
2023-03-21T16:32:11.740Z,11.25
2023-03-21T16:34:43.765Z,10.18
2023-03-21T16:37:18.145Z,9.85
2023-03-21T16:39:50.109Z,16.77
2023-03-21T16:42:20.662Z,11.35
2023-03-21T16:44:51.209Z,10.65
2023-03-21T16:47:24.740Z,9.63
2023-03-21T16:49:56.651Z,9.98
2023-03-21T16:52:28.297Z,9.43
2023-03-21T16:54:59.500Z,10.38
2023-03-21T16:57:30.860Z,10.15
2023-03-21T17:00:04.463Z,9.57
2023-03-21T17:02:35.686Z,9.98
2023-03-21T17:05:08.183Z,10.18
2023-03-21T17:07:44.999Z,10.57
2023-03-21T17:10:27.021Z,10.23
2023-03-21T17:13:00.439Z,9.55
2023-03-21T17:15:33.936Z,10.73
2023-03-21T17:18:06.170Z,9.25
2023-03-21T17:20:39.017Z,9.93
2023-03-21T17:23:11.277Z,10.20
2023-03-21T17:25:42.227Z,9.13
2023-03-21T17:28:12.919Z,9.40
2023-03-21T17:30:44.358Z,8.95
2023-03-21T17:33:16.356Z,9.05
2023-03-21T17:35:49.475Z,9.35
2023-03-21T17:38:20.233Z,8.77
2023-03-21T17:40:51.223Z,8.82
2023-03-21T17:43:24.009Z,9.18
2023-03-21T17:45:55.385Z,10.70
2023-03-21T17:48:26.220Z,9.05
2023-03-21T17:50:57.596Z,10.20
2023-03-21T17:53:28.422Z,9.80
2023-03-21T17:55:59.081Z,9.02
2023-03-21T17:58:31.412Z,9.35
2023-03-21T18:01:02.299Z,9.57
2023-03-21T18:03:41.180Z,10.02
2023-03-21T18:06:17.415Z,10.52
2023-03-21T18:08:49.197Z,10.13
2023-03-21T18:11:21.389Z,10.18
2023-03-21T18:13:59.424Z,10.70
2023-03-21T18:16:42.587Z,10.52
2023-03-21T18:19:14.284Z,10.07
2023-03-21T18:21:45.808Z,11.02
2023-03-21T18:24:17.317Z,10.90
2023-03-21T18:26:48.475Z,12.13
2023-03-21T18:32:12.324Z,11.27
2023-03-21T18:34:45.390Z,11.32
2023-03-21T18:37:16.016Z,12.15
2023-03-21T18:39:47.469Z,12.48
2023-03-21T18:42:20.227Z,13.48
2023-03-21T18:44:55.000Z,13.55
2023-03-21T18:47:28.877Z,14.45
2023-03-21T18:50:14.145Z,13.45
2023-03-21T18:52:45.315Z,14.00
2023-03-21T18:55:16.133Z,13.60
2023-03-21T18:57:46.877Z,13.38
2023-03-21T19:00:22.439Z,13.30
2023-03-21T19:03:04.279Z,13.73
2023-03-21T19:05:41.936Z,13.18
2023-03-21T19:08:13.152Z,13.95
2023-03-21T19:10:44.425Z,12.68
2023-03-21T19:13:15.019Z,13.98
2023-03-21T19:15:48.953Z,13.13
2023-03-21T19:18:49.503Z,13.52
2023-03-21T19:21:11.368Z,12.77
2023-03-21T19:24:16.394Z,12.23
2023-03-21T19:26:32.892Z,12.77
2023-03-21T19:29:03.568Z,12.10
2023-03-21T19:31:34.363Z,12.48
2023-03-21T19:34:05.751Z,12.02
2023-03-21T19:36:36.837Z,12.73
2023-03-21T19:39:07.763Z,13.43
2023-03-21T19:41:40.481Z,13.73
2023-03-21T19:44:13.901Z,14.88
2023-03-21T19:46:44.634Z,14.52
2023-03-21T19:49:22.111Z,15.23
2023-03-21T19:51:55.880Z,15.68
2023-03-21T19:54:38.927Z,16.05
2023-03-21T19:57:10.749Z,16.77
2023-03-21T19:59:42.928Z,16.52
2023-03-21T20:02:34.636Z,16.85
2023-03-21T20:05:06.255Z,17.60
2023-03-21T20:07:37.291Z,17.88
2023-03-21T20:10:11.875Z,17.73
2023-03-21T20:12:43.246Z,17.90
2023-03-21T20:15:20.873Z,18.38
2023-03-21T20:17:52.374Z,18.92
2023-03-21T20:20:24.855Z,18.45
2023-03-21T20:23:07.733Z,19.20
2023-03-21T20:25:44.054Z,18.25
2023-03-21T20:28:23.834Z,19.27
2023-03-21T20:31:01.601Z,19.70
2023-03-21T20:33:32.879Z,20.00
2023-03-21T20:38:59.294Z,18.95
2023-03-21T20:41:30.423Z,18.30
2023-03-21T20:46:57.948Z,19.52
2023-03-21T20:49:29.099Z,19.45
2023-03-21T20:52:51.833Z,19.55
2023-03-21T20:54:51.066Z,19.58
2023-03-21T20:57:22.202Z,24.33
2023-03-21T20:59:53.332Z,19.63
2023-03-21T21:02:24.593Z,18.52
2023-03-21T21:05:28.667Z,18.35
2023-03-21T21:07:49.851Z,19.02
2023-03-21T21:10:22.325Z,18.23
2023-03-21T21:12:54.710Z,18.27
2023-03-21T21:15:25.565Z,19.65
2023-03-21T21:18:08.081Z,19.17
2023-03-21T21:20:39.745Z,20.00
2023-03-21T21:23:13.928Z,20.30
2023-03-21T21:25:46.766Z,21.17
2023-03-21T21:28:19.700Z,20.60
2023-03-21T21:30:54.184Z,21.27
2023-03-21T21:33:26.226Z,22.40
2023-03-21T21:35:57.558Z,20.60
2023-03-21T21:38:28.712Z,22.15
2023-03-21T21:41:01.219Z,26.05
2023-03-21T21:43:35.723Z,21.33
2023-03-21T21:46:09.287Z,20.38
2023-03-21T21:48:42.034Z,19.50
2023-03-21T21:51:12.853Z,19.90
2023-03-21T21:53:43.875Z,22.60
2023-03-21T21:56:15.165Z,20.90
2023-03-21T21:58:55.515Z,21.75
2023-03-21T22:01:27.104Z,20.90
2023-03-21T22:03:59.193Z,20.27
2023-03-21T22:06:30.157Z,20.90
2023-03-21T22:09:01.962Z,21.60
2023-03-21T22:11:32.732Z,21.83
2023-03-21T22:14:04.246Z,22.38
2023-03-21T22:16:34.703Z,22.50
2023-03-21T22:19:05.640Z,21.27
2023-03-21T22:21:39.577Z,22.30
2023-03-21T22:24:10.889Z,22.52
2023-03-21T22:26:41.894Z,22.08
2023-03-21T22:29:12.943Z,22.88
2023-03-21T22:31:45.724Z,22.73
2023-03-21T22:34:16.492Z,21.67
2023-03-21T22:36:47.937Z,21.88
2023-03-21T22:39:27.115Z,21.83
2023-03-21T22:42:05.670Z,20.90
2023-03-21T22:44:36.771Z,21.55
2023-03-21T22:47:10.290Z,20.05
2023-03-21T22:49:43.476Z,22.55
2023-03-21T22:52:14.934Z,22.38
2023-03-21T22:54:46.817Z,21.52
2023-03-21T22:57:18.726Z,20.95
2023-03-21T22:59:50.686Z,19.95
2023-03-21T23:02:22.047Z,18.27
2023-03-21T23:04:53.543Z,33.00
2023-03-21T23:07:24.259Z,25.00
2023-03-21T23:09:55.108Z,21.85
2023-03-21T23:12:26.231Z,20.63
2023-03-21T23:14:57.406Z,20.17
2023-03-21T23:17:28.157Z,19.17
2023-03-21T23:19:58.996Z,28.83
2023-03-21T23:22:36.844Z,21.08
2023-03-21T23:25:09.933Z,19.02
2023-03-21T23:27:40.579Z,18.25
2023-03-21T23:30:11.886Z,16.42
2023-03-21T23:32:42.940Z,17.50
2023-03-21T23:35:13.573Z,18.58
2023-03-21T23:37:50.948Z,17.58
2023-03-21T23:40:22.800Z,19.52
2023-03-21T23:42:53.743Z,19.67
2023-03-21T23:45:24.675Z,19.30
2023-03-21T23:47:56.184Z,20.63
2023-03-21T23:50:27.646Z,21.98
2023-03-21T23:52:58.318Z,22.60
2023-03-21T23:55:29.125Z,22.75
2023-03-21T23:58:03.146Z,19.90
